createdAt,value
2023-04-15T00:01:29.150Z,100829.16
2023-04-15T00:04:03.080Z,100833.88
2023-04-15T00:06:29.843Z,100835.19
2023-04-15T00:09:04.034Z,100837.16
2023-04-15T00:11:30.738Z,100831.38
2023-04-15T00:14:04.948Z,100831.66
2023-04-15T00:16:31.758Z,100832.69
2023-04-15T00:18:58.694Z,100832.22
2023-04-15T00:21:32.191Z,100842.69
2023-04-15T00:24:04.997Z,100836.75
2023-04-15T00:26:31.654Z,100824.25
2023-04-15T00:29:05.088Z,100827.81
2023-04-15T00:31:32.312Z,100834.41
2023-04-15T00:33:59.947Z,100833.59
2023-04-15T00:36:33.081Z,100826.47
2023-04-15T00:39:00.216Z,100825.41
2023-04-15T00:41:33.977Z,100836.09
2023-04-15T00:44:08.188Z,100837.00
2023-04-15T00:46:45.992Z,100836.66
2023-04-15T00:49:13.440Z,100834.94
2023-04-15T00:51:46.967Z,100839.41
2023-04-15T00:54:14.092Z,100848.56
2023-04-15T00:56:47.957Z,100836.78
2023-04-15T00:59:15.304Z,100838.22
2023-04-15T01:01:49.137Z,100827.56
2023-04-15T01:04:22.632Z,100840.81
2023-04-15T01:06:56.063Z,100835.25
2023-04-15T01:09:22.921Z,100843.78
2023-04-15T01:11:49.695Z,100843.56
2023-04-15T01:14:23.040Z,100829.13
2023-04-15T01:16:49.887Z,100832.44
2023-04-15T01:19:24.987Z,100834.13
2023-04-15T01:21:52.167Z,100841.31
2023-04-15T01:24:26.048Z,100841.41
2023-04-15T01:26:52.903Z,100841.50
2023-04-15T01:29:27.040Z,100833.94
2023-04-15T01:31:56.229Z,100837.72
2023-04-15T01:34:30.047Z,100836.97
2023-04-15T01:36:56.802Z,100839.84
2023-04-15T01:39:23.710Z,100836.53
2023-04-15T01:41:57.029Z,100834.09
2023-04-15T01:44:30.167Z,100843.22
2023-04-15T01:47:03.047Z,100841.69
2023-04-15T01:49:29.904Z,100849.72
2023-04-15T01:52:03.018Z,100849.63
2023-04-15T01:54:29.910Z,100847.00
2023-04-15T01:57:04.004Z,100842.66
2023-04-15T01:59:31.605Z,100848.72
2023-04-15T02:02:05.084Z,100844.28
2023-04-15T02:04:38.012Z,100846.66
2023-04-15T02:07:04.790Z,100840.69
2023-04-15T02:09:38.015Z,100852.22
2023-04-15T02:12:06.166Z,100845.97
2023-04-15T02:14:39.028Z,100848.81
2023-04-15T02:17:08.767Z,100847.28
2023-04-15T02:19:43.090Z,100843.97
2023-04-15T02:22:11.669Z,100842.34
2023-04-15T02:24:45.014Z,100850.25
2023-04-15T02:27:18.372Z,100846.38
2023-04-15T02:29:53.043Z,100852.41
2023-04-15T02:32:20.385Z,100860.44
2023-04-15T02:34:54.053Z,100855.34
2023-04-15T02:37:21.146Z,100858.00
2023-04-15T02:39:48.010Z,100858.22
2023-04-15T02:42:21.110Z,100873.31
2023-04-15T02:44:47.933Z,100874.19
2023-04-15T02:47:22.046Z,100877.78
2023-04-15T02:49:48.829Z,100883.78
2023-04-15T02:52:22.011Z,100885.75
2023-04-15T02:54:48.875Z,100883.31
2023-04-15T02:57:22.046Z,100882.38
2023-04-15T02:59:48.803Z,100887.00
2023-04-15T03:02:22.211Z,100889.88
2023-04-15T03:04:56.057Z,100891.66
2023-04-15T03:07:29.078Z,100890.16
2023-04-15T03:09:55.782Z,100887.16
2023-04-15T03:12:29.084Z,100893.38
2023-04-15T03:15:02.108Z,100894.41
2023-04-15T03:17:28.901Z,100901.53
2023-04-15T03:20:02.034Z,100909.66
2023-04-15T03:22:28.723Z,100911.59
2023-04-15T03:25:02.060Z,100903.91
2023-04-15T03:27:28.789Z,100894.81
2023-04-15T03:30:03.129Z,100899.59
2023-04-15T03:32:29.839Z,100906.38
2023-04-15T03:34:56.540Z,100914.38
2023-04-15T03:37:30.094Z,100910.53
2023-04-15T03:39:56.884Z,100908.41
2023-04-15T03:42:30.102Z,100912.91
2023-04-15T03:45:04.401Z,100908.56
2023-04-15T03:47:38.172Z,100917.50
2023-04-15T03:50:05.298Z,100925.50
2023-04-15T03:52:38.068Z,100921.16
2023-04-15T03:55:05.461Z,100924.72
2023-04-15T03:57:39.130Z,100923.03
2023-04-15T04:00:07.268Z,100935.53
2023-04-15T04:02:40.274Z,100931.34
2023-04-15T04:05:07.299Z,100947.16
2023-04-15T04:07:40.024Z,100934.91
2023-04-15T04:10:07.336Z,100946.22
2023-04-15T04:12:34.005Z,100951.50
2023-04-15T04:15:07.090Z,100955.06
2023-04-15T04:17:40.242Z,100955.00
2023-04-15T04:20:14.094Z,100954.28
2023-04-15T04:22:41.550Z,100964.16
2023-04-15T04:25:17.135Z,100958.19
2023-04-15T04:27:43.828Z,100954.00
2023-04-15T04:30:17.147Z,100960.44
2023-04-15T04:32:43.967Z,100962.53
2023-04-15T04:35:18.179Z,100961.06
2023-04-15T04:37:45.048Z,100956.13
2023-04-15T04:40:35.224Z,100949.50
2023-04-15T04:43:15.092Z,100947.19
2023-04-15T04:45:48.240Z,100968.75
2023-04-15T04:48:21.086Z,100960.91
2023-04-15T04:50:54.135Z,100963.53
2023-04-15T04:53:20.890Z,100963.63
2023-04-15T04:55:54.055Z,100966.50
2023-04-15T04:58:20.837Z,100955.63
2023-04-15T05:00:54.114Z,100973.06
2023-04-15T05:03:27.243Z,100973.31
2023-04-15T05:06:01.123Z,100961.97
2023-04-15T05:08:34.293Z,100976.03
2023-04-15T05:11:01.155Z,100970.81
2023-04-15T05:13:34.230Z,100980.25
2023-04-15T05:16:07.150Z,100967.50
2023-04-15T05:18:41.154Z,100978.72
2023-04-15T05:21:07.900Z,100988.25
2023-04-15T05:23:34.808Z,100997.66
2023-04-15T05:26:08.072Z,100999.03
2023-04-15T05:28:41.159Z,101002.31
2023-04-15T05:31:15.186Z,100999.38
2023-04-15T05:33:42.155Z,101011.50
2023-04-15T05:36:15.080Z,101013.97
2023-04-15T05:38:42.300Z,101019.00
2023-04-15T05:41:18.395Z,101011.84
2023-04-15T05:43:52.637Z,101003.56
2023-04-15T05:46:26.126Z,101023.28
2023-04-15T05:48:54.660Z,101030.94
2023-04-15T05:51:28.166Z,101034.97
2023-04-15T05:53:54.805Z,101034.75
2023-04-15T05:56:28.179Z,101043.28
2023-04-15T05:58:54.960Z,101037.84
2023-04-15T06:01:29.208Z,101041.75
2023-04-15T06:03:56.458Z,101046.56
2023-04-15T06:06:30.154Z,101045.06
2023-04-15T06:08:57.692Z,101048.00
2023-04-15T06:11:31.212Z,101054.19
2023-04-15T06:13:58.056Z,101050.81
2023-04-15T06:16:31.287Z,101063.19
2023-04-15T06:19:04.118Z,101062.44
2023-04-15T06:21:31.736Z,101062.38
2023-04-15T06:24:07.212Z,101063.22
2023-04-15T06:26:33.983Z,101062.47
2023-04-15T06:29:07.101Z,101063.47
2023-04-15T06:31:34.015Z,101063.72
2023-04-15T06:34:07.177Z,101063.09
2023-04-15T06:36:34.034Z,101068.66
2023-04-15T06:39:08.142Z,101072.75
2023-04-15T06:41:42.077Z,101067.84
2023-04-15T06:44:22.152Z,101071.00
2023-04-15T06:46:48.974Z,101067.88
2023-04-15T06:49:22.164Z,101065.81
2023-04-15T06:51:55.160Z,101079.47
2023-04-15T06:54:21.955Z,101078.16
2023-04-15T06:56:55.163Z,101078.81
2023-04-15T06:59:21.916Z,101081.13
2023-04-15T07:01:55.120Z,101084.13
2023-04-15T07:04:21.890Z,101085.47
2023-04-15T07:06:55.164Z,101087.66
2023-04-15T07:09:23.273Z,101092.41
2023-04-15T07:11:56.119Z,101088.44
2023-04-15T07:14:22.937Z,101095.81
2023-04-15T07:16:56.162Z,101091.84
2023-04-15T07:19:30.186Z,101095.50
2023-04-15T07:22:03.240Z,101100.34
2023-04-15T07:24:37.352Z,101096.72
2023-04-15T07:27:04.341Z,101101.44
2023-04-15T07:29:38.133Z,101110.72
2023-04-15T07:32:05.208Z,101116.41
2023-04-15T07:34:38.230Z,101112.53
2023-04-15T07:37:04.870Z,101119.41
2023-04-15T07:39:38.176Z,101109.00
2023-04-15T07:42:11.166Z,101116.00
2023-04-15T07:44:51.150Z,101124.81
2023-04-15T07:47:17.843Z,101122.16
2023-04-15T07:49:51.163Z,101131.75
2023-04-15T07:52:24.243Z,101130.13
2023-04-15T07:54:51.246Z,101126.91
2023-04-15T07:57:24.167Z,101126.63
2023-04-15T07:59:50.846Z,101133.44
2023-04-15T08:02:24.292Z,101142.16
2023-04-15T08:04:51.140Z,101136.53
2023-04-15T08:07:25.216Z,101143.19
2023-04-15T08:09:51.994Z,101147.44
2023-04-15T08:12:25.211Z,101144.78
2023-04-15T08:14:52.364Z,101151.88
2023-04-15T08:17:19.072Z,101146.19
2023-04-15T08:19:52.179Z,101153.44
2023-04-15T08:22:19.685Z,101150.97
2023-04-15T08:24:54.166Z,101144.50
2023-04-15T08:27:20.885Z,101149.41
2023-04-15T08:29:54.219Z,101152.69
2023-04-15T08:32:21.485Z,101150.81
2023-04-15T08:34:55.276Z,101153.34
2023-04-15T08:37:23.173Z,101142.50
2023-04-15T08:39:57.286Z,101157.13
2023-04-15T08:42:37.688Z,101149.41
2023-04-15T08:45:12.269Z,101154.84
2023-04-15T08:47:48.244Z,101155.09
2023-04-15T08:50:23.208Z,101154.69
2023-04-15T08:52:56.267Z,101159.25
2023-04-15T08:55:30.241Z,101153.19
2023-04-15T08:57:57.592Z,101164.59
2023-04-15T09:00:31.406Z,101161.53
2023-04-15T09:03:06.318Z,101175.00
2023-04-15T09:05:34.529Z,101171.81
2023-04-15T09:08:09.219Z,101178.75
2023-04-15T09:10:37.029Z,101174.06
2023-04-15T09:13:11.291Z,101174.50
2023-04-15T09:15:40.695Z,101186.28
2023-04-15T09:18:14.283Z,101185.53
2023-04-15T09:20:45.370Z,101187.78
2023-04-15T09:23:21.239Z,101190.78
2023-04-15T09:25:49.455Z,101189.16
2023-04-15T09:28:31.190Z,101200.22
2023-04-15T09:31:08.247Z,101195.88
2023-04-15T09:33:41.229Z,101204.81
2023-04-15T09:36:08.136Z,101195.66
2023-04-15T09:38:41.301Z,101196.63
2023-04-15T09:41:18.927Z,101204.38
2023-04-15T09:43:59.286Z,101204.09
2023-04-15T09:46:59.235Z,101209.59
2023-04-15T09:49:26.188Z,101205.56
2023-04-15T09:52:06.504Z,101212.91
2023-04-15T09:54:38.995Z,101219.84
2023-04-15T09:57:16.240Z,101222.78
2023-04-15T09:59:43.024Z,101218.03
2023-04-15T10:02:18.391Z,101229.19
2023-04-15T10:04:45.852Z,101224.00
2023-04-15T10:07:19.290Z,101218.97
2023-04-15T10:09:47.177Z,101226.84
2023-04-15T10:12:23.264Z,101228.22
2023-04-15T10:14:56.593Z,101233.19
2023-04-15T10:17:31.817Z,101224.53
2023-04-15T10:20:09.567Z,101229.63
2023-04-15T10:22:44.299Z,101229.13
2023-04-15T10:25:12.372Z,101229.34
2023-04-15T10:27:49.280Z,101232.44
2023-04-15T10:30:23.357Z,101242.25
2023-04-15T10:32:50.650Z,101240.66
2023-04-15T10:35:25.343Z,101245.09
2023-04-15T10:37:52.088Z,101240.75
2023-04-15T10:40:39.318Z,101246.84
2023-04-15T10:43:39.284Z,101243.09
2023-04-15T10:46:13.295Z,101245.03
2023-04-15T10:48:46.947Z,101252.03
2023-04-15T10:51:21.274Z,101247.78
2023-04-15T10:53:48.350Z,101247.78
2023-04-15T10:56:24.259Z,101248.00
2023-04-15T10:58:51.392Z,101239.72
2023-04-15T11:01:30.406Z,101254.19
2023-04-15T11:03:57.283Z,101254.59
2023-04-15T11:06:51.271Z,101246.69
2023-04-15T11:09:41.252Z,101254.88
2023-04-15T11:12:09.987Z,101258.72
2023-04-15T11:14:47.252Z,101255.41
2023-04-15T11:17:14.001Z,101256.81
2023-04-15T11:19:47.257Z,101258.00
2023-04-15T11:22:14.027Z,101259.63
2023-04-15T11:24:57.287Z,101267.81
2023-04-15T11:27:24.262Z,101268.44
2023-04-15T11:29:57.352Z,101274.53
2023-04-15T11:32:24.207Z,101273.88
2023-04-15T11:34:59.278Z,101274.84
2023-04-15T11:37:30.349Z,101282.44
2023-04-15T11:40:03.286Z,101277.94
2023-04-15T11:42:39.449Z,101280.94
2023-04-15T11:45:23.335Z,101283.16
2023-04-15T11:47:50.259Z,101284.41
2023-04-15T11:50:24.384Z,101289.56
2023-04-15T11:52:59.096Z,101286.56
2023-04-15T11:55:33.522Z,101288.44
2023-04-15T11:58:17.101Z,101295.56
2023-04-15T12:01:07.447Z,101291.44
2023-04-15T12:03:38.757Z,101297.94
2023-04-15T12:06:32.357Z,101281.97
2023-04-15T12:09:00.551Z,101293.03
2023-04-15T12:11:33.431Z,101292.63
2023-04-15T12:14:09.572Z,101304.44
2023-04-15T12:16:48.469Z,101310.75
2023-04-15T12:19:36.494Z,101315.63
2023-04-15T12:22:17.283Z,101316.69
2023-04-15T12:24:48.043Z,101324.03
2023-04-15T12:27:33.342Z,101329.16
2023-04-15T12:30:06.627Z,101330.97
2023-04-15T12:32:43.633Z,101325.09
2023-04-15T12:35:10.669Z,101332.25
2023-04-15T12:37:44.369Z,101345.34
2023-04-15T12:40:11.697Z,101347.91
2023-04-15T12:42:38.404Z,101350.66
2023-04-15T12:45:12.423Z,101356.75
2023-04-15T12:47:45.439Z,101360.25
2023-04-15T12:50:12.174Z,101357.38
2023-04-15T12:52:45.348Z,101351.63
2023-04-15T12:55:12.467Z,101360.69
2023-04-15T12:57:46.361Z,101366.97
2023-04-15T13:00:20.297Z,101359.72
2023-04-15T13:02:47.340Z,101357.69
2023-04-15T13:05:22.435Z,101367.59
2023-04-15T13:07:49.115Z,101363.25
2023-04-15T13:10:22.385Z,101366.66
2023-04-15T13:12:50.731Z,101377.09
2023-04-15T13:15:20.798Z,101378.69
2023-04-15T13:17:54.400Z,101376.69
2023-04-15T13:20:21.439Z,101378.38
2023-04-15T13:22:55.369Z,101374.94
2023-04-15T13:25:22.410Z,101381.25
2023-04-15T13:27:56.311Z,101391.38
2023-04-15T13:30:23.066Z,101387.84
2023-04-15T13:32:57.466Z,101375.69
2023-04-15T13:35:24.338Z,101391.88
2023-04-15T13:37:57.334Z,101395.59
2023-04-15T13:40:24.109Z,101386.66
2023-04-15T13:43:05.351Z,101409.84
2023-04-15T13:45:39.283Z,101404.91
2023-04-15T13:48:13.365Z,101407.91
2023-04-15T13:50:48.417Z,101412.69
2023-04-15T13:53:21.366Z,101416.00
2023-04-15T13:56:00.791Z,101411.81
2023-04-15T13:58:34.534Z,101419.03
2023-04-15T14:01:03.258Z,101423.81
2023-04-15T14:03:38.643Z,101415.28
2023-04-15T14:06:13.390Z,101426.16
2023-04-15T14:08:40.263Z,101426.31
2023-04-15T14:11:13.368Z,101425.56
2023-04-15T14:13:40.281Z,101426.53
2023-04-15T14:16:13.426Z,101434.50
2023-04-15T14:18:40.727Z,101435.16
2023-04-15T14:21:14.408Z,101428.34
2023-04-15T14:23:41.290Z,101420.66
2023-04-15T14:26:14.447Z,101442.38
2023-04-15T14:28:41.525Z,101442.72
2023-04-15T14:31:14.481Z,101448.03
2023-04-15T14:33:41.734Z,101449.06
2023-04-15T14:36:09.606Z,101451.72
2023-04-15T14:38:48.492Z,101451.06
2023-04-15T14:41:16.331Z,101454.03
2023-04-15T14:43:49.359Z,101456.50
2023-04-15T14:46:22.532Z,101456.69
2023-04-15T14:48:56.446Z,101469.78
2023-04-15T14:51:23.440Z,101470.94
2023-04-15T14:53:56.433Z,101474.75
2023-04-15T14:56:23.284Z,101470.56
2023-04-15T14:58:57.385Z,101479.47
2023-04-15T15:01:24.180Z,101471.63
2023-04-15T15:03:57.520Z,101478.16
2023-04-15T15:06:30.446Z,101489.00
2023-04-15T15:08:57.266Z,101484.94
2023-04-15T15:11:30.459Z,101479.81
2023-04-15T15:13:57.439Z,101488.16
2023-04-15T15:16:31.382Z,101493.56
2023-04-15T15:18:58.249Z,101491.94
2023-04-15T15:21:31.491Z,101490.53
2023-04-15T15:23:58.339Z,101499.66
2023-04-15T15:26:31.502Z,101498.13
2023-04-15T15:29:05.529Z,101510.53
2023-04-15T15:31:39.489Z,101514.25
2023-04-15T15:34:12.420Z,101520.81
2023-04-15T15:36:39.184Z,101520.81
2023-04-15T15:39:12.498Z,101508.75
2023-04-15T15:41:39.206Z,101520.22
2023-04-15T15:44:19.448Z,101525.34
2023-04-15T15:46:46.469Z,101536.84
2023-04-15T15:49:20.420Z,101543.28
2023-04-15T15:51:47.255Z,101535.31
2023-04-15T15:54:20.421Z,101546.91
2023-04-15T15:56:47.297Z,101555.88
2023-04-15T15:59:20.459Z,101555.78
2023-04-15T16:01:48.516Z,101555.09
2023-04-15T16:04:22.732Z,101557.66
2023-04-15T16:06:56.479Z,101555.28
2023-04-15T16:09:23.219Z,101552.44
2023-04-15T16:11:56.398Z,101554.22
2023-04-15T16:14:25.378Z,101557.66
2023-04-15T16:16:59.436Z,101554.16
2023-04-15T16:19:26.236Z,101559.53
2023-04-15T16:22:00.431Z,101569.31
2023-04-15T16:24:27.787Z,101567.78
2023-04-15T16:27:01.410Z,101560.94
2023-04-15T16:29:28.773Z,101571.41
2023-04-15T16:32:02.525Z,101564.38
2023-04-15T16:34:29.395Z,101571.41
2023-04-15T16:37:02.449Z,101579.44
2023-04-15T16:39:35.427Z,101579.53
2023-04-15T16:42:09.492Z,101570.13
2023-04-15T16:44:42.513Z,101577.06
2023-04-15T16:47:11.526Z,101586.06
2023-04-15T16:49:45.468Z,101576.69
2023-04-15T16:52:12.213Z,101600.38
2023-04-15T16:54:48.523Z,101593.28
2023-04-15T16:57:15.303Z,101594.13
2023-04-15T16:59:48.474Z,101585.56
2023-04-15T17:02:21.745Z,101602.28
2023-04-15T17:04:55.466Z,101595.31
2023-04-15T17:07:22.230Z,101576.59
2023-04-15T17:09:55.547Z,101597.22
2023-04-15T17:12:22.434Z,101601.94
2023-04-15T17:14:49.196Z,101612.56
2023-04-15T17:17:23.674Z,101618.84
2023-04-15T17:19:50.541Z,101616.41
2023-04-15T17:22:23.467Z,101619.06
2023-04-15T17:24:50.570Z,101616.88
2023-04-15T17:27:23.478Z,101622.97
2023-04-15T17:29:50.136Z,101629.00
2023-04-15T17:32:23.537Z,101627.50
2023-04-15T17:34:51.515Z,101635.38
2023-04-15T17:37:25.438Z,101638.81
2023-04-15T17:39:52.482Z,101638.13
2023-04-15T17:42:25.428Z,101623.63
2023-04-15T17:45:05.452Z,101642.66
2023-04-15T17:47:38.628Z,101647.09
2023-04-15T17:50:12.506Z,101651.63
2023-04-15T17:52:39.330Z,101659.78
2023-04-15T17:55:13.548Z,101658.09
2023-04-15T17:57:40.513Z,101653.00
2023-04-15T18:00:16.553Z,101660.28
2023-04-15T18:02:43.563Z,101668.94
2023-04-15T18:05:17.625Z,101678.97
2023-04-15T18:07:44.891Z,101673.97
2023-04-15T18:10:12.015Z,101677.50
2023-04-15T18:12:45.517Z,101682.13
2023-04-15T18:15:12.460Z,101679.56
2023-04-15T18:17:45.562Z,101672.94
2023-04-15T18:20:13.151Z,101679.88
2023-04-15T18:22:46.533Z,101680.81
2023-04-15T18:25:13.588Z,101687.22
2023-04-15T18:27:47.560Z,101690.84
2023-04-15T18:30:14.364Z,101694.50
2023-04-15T18:32:48.719Z,101696.47
2023-04-15T18:35:17.368Z,101701.84
2023-04-15T18:37:50.505Z,101713.56
2023-04-15T18:40:23.552Z,101720.59
2023-04-15T18:42:56.595Z,101727.69
2023-04-15T18:45:31.182Z,101739.22
2023-04-15T18:48:04.594Z,101728.78
2023-04-15T18:50:37.491Z,101734.09
2023-04-15T18:53:04.285Z,101742.03
2023-04-15T18:55:38.568Z,101750.69
2023-04-15T18:58:06.556Z,101748.03
2023-04-15T19:00:45.561Z,101751.56
2023-04-15T19:03:12.398Z,101747.50
2023-04-15T19:05:46.621Z,101749.91
2023-04-15T19:08:13.574Z,101762.16
2023-04-15T19:10:47.671Z,101767.38
2023-04-15T19:13:20.502Z,101769.16
2023-04-15T19:15:53.575Z,101775.44
2023-04-15T19:18:28.621Z,101778.09
2023-04-15T19:20:56.836Z,101791.16
2023-04-15T19:23:30.523Z,101790.25
2023-04-15T19:25:57.683Z,101792.03
2023-04-15T19:28:31.539Z,101791.25
2023-04-15T19:30:58.796Z,101793.81
2023-04-15T19:33:37.505Z,101800.00
2023-04-15T19:36:12.558Z,101790.56
2023-04-15T19:38:45.536Z,101802.72
2023-04-15T19:41:12.328Z,101803.53
2023-04-15T19:43:52.669Z,101813.19
2023-04-15T19:46:27.212Z,101814.13
2023-04-15T19:49:02.567Z,101814.19
2023-04-15T19:51:29.859Z,101811.53
2023-04-15T19:54:03.524Z,101802.88
2023-04-15T19:56:31.737Z,101814.03
2023-04-15T19:59:07.882Z,101816.78
2023-04-15T20:01:34.777Z,101814.13
2023-04-15T20:04:09.675Z,101809.56
2023-04-15T20:06:43.617Z,101814.88
2023-04-15T20:09:11.404Z,101817.47
2023-04-15T20:12:46.094Z,101803.44
2023-04-15T20:14:37.513Z,101801.69
2023-04-15T20:17:10.638Z,101810.53
2023-04-15T20:19:37.413Z,101804.28
2023-04-15T20:22:10.644Z,101800.09
2023-04-15T20:24:37.485Z,101808.75
2023-04-15T20:27:10.711Z,101810.44
2023-04-15T20:29:38.117Z,101811.31
2023-04-15T20:32:05.166Z,101808.66
2023-04-15T20:34:38.533Z,101809.53
2023-04-15T20:37:05.817Z,101806.09
2023-04-15T20:39:38.563Z,101808.66
2023-04-15T20:42:05.325Z,101811.38
2023-04-15T20:44:38.631Z,101814.97
2023-04-15T20:47:12.705Z,101812.31
2023-04-15T20:49:46.536Z,101812.31
2023-04-15T20:52:19.591Z,101806.22
2023-04-15T20:54:53.717Z,101818.56
2023-04-15T20:57:20.629Z,101814.97
2023-04-15T20:59:53.672Z,101820.28
2023-04-15T21:02:20.488Z,101826.53
2023-04-15T21:04:53.563Z,101821.22
2023-04-15T21:07:26.641Z,101822.09
2023-04-15T21:09:53.409Z,101822.09
2023-04-15T21:12:26.551Z,101826.53
2023-04-15T21:14:53.384Z,101816.22
2023-04-15T21:17:26.584Z,101820.53
2023-04-15T21:19:53.418Z,101825.66
2023-04-15T21:22:26.679Z,101831.06
2023-04-15T21:24:53.516Z,101825.13
2023-04-15T21:27:26.597Z,101830.25
2023-04-15T21:29:53.393Z,101826.75
2023-04-15T21:32:26.658Z,101835.56
2023-04-15T21:34:53.425Z,101828.66
2023-04-15T21:37:20.210Z,101843.59
2023-04-15T21:39:53.592Z,101834.16
2023-04-15T21:42:20.407Z,101853.34
2023-04-15T21:44:53.627Z,101851.66
2023-04-15T21:47:27.130Z,101852.53
2023-04-15T21:50:00.626Z,101863.88
2023-04-15T21:52:27.407Z,101871.00
2023-04-15T21:55:00.610Z,101873.66
2023-04-15T21:57:27.428Z,101877.09
2023-04-15T22:00:00.612Z,101870.91
2023-04-15T22:02:27.660Z,101881.44
2023-04-15T22:05:00.638Z,101866.69
2023-04-15T22:07:27.380Z,101878.88
2023-04-15T22:10:00.615Z,101885.06
2023-04-15T22:12:33.560Z,101891.28
2023-04-15T22:15:07.579Z,101888.63
2023-04-15T22:17:40.714Z,101881.63
2023-04-15T22:20:08.331Z,101892.13
2023-04-15T22:22:48.703Z,101886.75
2023-04-15T22:25:21.299Z,101897.44
2023-04-15T22:27:54.632Z,101896.50
2023-04-15T22:30:21.566Z,101889.31
2023-04-15T22:33:01.681Z,101889.31
2023-04-15T22:35:28.619Z,101893.84
2023-04-15T22:38:01.661Z,101892.06
2023-04-15T22:40:29.138Z,101897.38
2023-04-15T22:42:55.953Z,101895.66
2023-04-15T22:45:29.585Z,101886.91
2023-04-15T22:48:03.007Z,101899.16
2023-04-15T22:50:36.605Z,101897.44
2023-04-15T22:53:03.339Z,101901.81
2023-04-15T22:55:36.579Z,101895.66
2023-04-15T22:58:03.433Z,101907.97
2023-04-15T23:00:36.590Z,101902.84
2023-04-15T23:03:03.452Z,101910.53
2023-04-15T23:05:36.741Z,101910.53
2023-04-15T23:08:03.531Z,101917.59
2023-04-15T23:10:36.636Z,101915.75
2023-04-15T23:13:09.641Z,101915.69
2023-04-15T23:15:43.707Z,101921.00
2023-04-15T23:18:10.706Z,101910.38
2023-04-15T23:20:43.705Z,101914.84
2023-04-15T23:23:16.694Z,101911.25
2023-04-15T23:25:49.843Z,101920.00
2023-04-15T23:28:22.643Z,101927.94
2023-04-15T23:30:50.327Z,101922.56
2023-04-15T23:33:23.680Z,101920.00
2023-04-15T23:35:50.766Z,101928.91
2023-04-15T23:38:23.694Z,101931.38
2023-04-15T23:40:53.357Z,101933.09
2023-04-15T23:43:26.656Z,101929.53
2023-04-15T23:45:59.807Z,101920.78
2023-04-15T23:48:39.613Z,101919.81
2023-04-15T23:51:13.733Z,101930.34
2023-04-15T23:53:40.856Z,101925.91
2023-04-15T23:56:14.697Z,101929.34
2023-04-15T23:58:48.177Z,101932.78
